sensor_id;sensor_type;location;lat;lon;timestamp;temperature;humidity
23869;DHT22;12115;47.128;15.422;2024-03-17T00:02:15;8.80;99.90
23869;DHT22;12115;47.128;15.422;2024-03-17T00:04:41;8.80;99.90
23869;DHT22;12115;47.128;15.422;2024-03-17T00:07:08;8.80;99.90
23869;DHT22;12115;47.128;15.422;2024-03-17T00:09:34;8.80;99.90
23869;DHT22;12115;47.128;15.422;2024-03-17T00:12:00;8.70;99.90
23869;DHT22;12115;47.128;15.422;2024-03-17T00:14:26;8.60;99.90
23869;DHT22;12115;47.128;15.422;2024-03-17T00:16:54;8.60;99.90
23869;DHT22;12115;47.128;15.422;2024-03-17T00:19:20;8.60;99.90
23869;DHT22;12115;47.128;15.422;2024-03-17T00:21:50;8.60;99.90
23869;DHT22;12115;47.128;15.422;2024-03-17T00:24:19;8.60;99.90
23869;DHT22;12115;47.128;15.422;2024-03-17T00:26:49;8.60;99.90
23869;DHT22;12115;47.128;15.422;2024-03-17T00:29:15;8.60;99.90
23869;DHT22;12115;47.128;15.422;2024-03-17T00:31:41;8.70;99.90
23869;DHT22;12115;47.128;15.422;2024-03-17T00:34:08;8.60;99.90
23869;DHT22;12115;47.128;15.422;2024-03-17T00:36:35;8.60;99.90
23869;DHT22;12115;47.128;15.422;2024-03-17T00:39:02;8.60;99.90
23869;DHT22;12115;47.128;15.422;2024-03-17T00:41:29;8.70;99.90
23869;DHT22;12115;47.128;15.422;2024-03-17T00:43:55;8.60;99.90
23869;DHT22;12115;47.128;15.422;2024-03-17T00:46:21;8.60;99.90
23869;DHT22;12115;47.128;15.422;2024-03-17T00:48:48;8.60;99.90
23869;DHT22;12115;47.128;15.422;2024-03-17T00:51:15;8.50;99.90
23869;DHT22;12115;47.128;15.422;2024-03-17T00:53:41;8.50;99.90
23869;DHT22;12115;47.128;15.422;2024-03-17T00:56:08;8.50;99.90
23869;DHT22;12115;47.128;15.422;2024-03-17T00:58:34;8.40;99.90
23869;DHT22;12115;47.128;15.422;2024-03-17T01:01:00;8.40;99.90
23869;DHT22;12115;47.128;15.422;2024-03-17T01:03:27;8.40;99.90
23869;DHT22;12115;47.128;15.422;2024-03-17T01:05:54;8.40;99.90
23869;DHT22;12115;47.128;15.422;2024-03-17T01:08:20;8.40;99.90
23869;DHT22;12115;47.128;15.422;2024-03-17T01:10:48;8.30;99.90
23869;DHT22;12115;47.128;15.422;2024-03-17T01:13:17;8.30;99.90
23869;DHT22;12115;47.128;15.422;2024-03-17T01:15:45;8.30;99.90
23869;DHT22;12115;47.128;15.422;2024-03-17T01:18:11;8.20;99.90
23869;DHT22;12115;47.128;15.422;2024-03-17T01:20:38;8.20;99.90
23869;DHT22;12115;47.128;15.422;2024-03-17T01:23:04;8.20;99.90
23869;DHT22;12115;47.128;15.422;2024-03-17T01:25:34;8.20;99.90
23869;DHT22;12115;47.128;15.422;2024-03-17T01:28:04;8.20;99.90
23869;DHT22;12115;47.128;15.422;2024-03-17T01:30:30;8.10;99.90
23869;DHT22;12115;47.128;15.422;2024-03-17T01:32:58;8.10;99.90
23869;DHT22;12115;47.128;15.422;2024-03-17T01:35:27;8.10;99.90
23869;DHT22;12115;47.128;15.422;2024-03-17T01:37:53;8.10;99.90
23869;DHT22;12115;47.128;15.422;2024-03-17T01:40:20;8.00;99.90
23869;DHT22;12115;47.128;15.422;2024-03-17T01:42:47;8.00;99.90
23869;DHT22;12115;47.128;15.422;2024-03-17T01:45:28;7.90;99.90
23869;DHT22;12115;47.128;15.422;2024-03-17T01:47:55;7.90;99.90
23869;DHT22;12115;47.128;15.422;2024-03-17T01:50:26;7.80;99.90
23869;DHT22;12115;47.128;15.422;2024-03-17T01:52:54;7.80;99.90
23869;DHT22;12115;47.128;15.422;2024-03-17T01:55:22;7.80;99.90
23869;DHT22;12115;47.128;15.422;2024-03-17T01:57:53;7.80;99.90
23869;DHT22;12115;47.128;15.422;2024-03-17T02:00:19;7.70;99.90
23869;DHT22;12115;47.128;15.422;2024-03-17T02:02:46;7.70;99.90
23869;DHT22;12115;47.128;15.422;2024-03-17T02:05:12;7.70;99.90
23869;DHT22;12115;47.128;15.422;2024-03-17T02:07:38;7.70;99.90
23869;DHT22;12115;47.128;15.422;2024-03-17T02:10:04;7.70;99.90
23869;DHT22;12115;47.128;15.422;2024-03-17T02:12:31;7.70;99.90
23869;DHT22;12115;47.128;15.422;2024-03-17T02:14:58;7.70;99.90
23869;DHT22;12115;47.128;15.422;2024-03-17T02:17:24;7.60;99.90
23869;DHT22;12115;47.128;15.422;2024-03-17T02:19:54;7.60;99.90
23869;DHT22;12115;47.128;15.422;2024-03-17T02:22:20;7.60;99.90
23869;DHT22;12115;47.128;15.422;2024-03-17T02:24:46;7.60;99.90
23869;DHT22;12115;47.128;15.422;2024-03-17T02:27:13;7.60;99.90
23869;DHT22;12115;47.128;15.422;2024-03-17T02:29:39;7.60;99.90
23869;DHT22;12115;47.128;15.422;2024-03-17T02:32:06;7.60;99.90
23869;DHT22;12115;47.128;15.422;2024-03-17T02:34:34;7.70;99.90
23869;DHT22;12115;47.128;15.422;2024-03-17T02:37:05;7.60;99.90
23869;DHT22;12115;47.128;15.422;2024-03-17T02:39:47;7.60;99.90
23869;DHT22;12115;47.128;15.422;2024-03-17T02:42:14;7.60;99.90
23869;DHT22;12115;47.128;15.422;2024-03-17T02:44:40;7.60;99.90
23869;DHT22;12115;47.128;15.422;2024-03-17T02:47:07;7.50;99.90
23869;DHT22;12115;47.128;15.422;2024-03-17T02:49:37;7.50;99.90
23869;DHT22;12115;47.128;15.422;2024-03-17T02:52:08;7.50;99.90
23869;DHT22;12115;47.128;15.422;2024-03-17T02:54:36;7.40;99.90
23869;DHT22;12115;47.128;15.422;2024-03-17T02:57:03;7.40;99.90
23869;DHT22;12115;47.128;15.422;2024-03-17T02:59:29;7.40;99.90
23869;DHT22;12115;47.128;15.422;2024-03-17T03:01:57;7.30;99.90
23869;DHT22;12115;47.128;15.422;2024-03-17T03:04:23;7.30;99.90
23869;DHT22;12115;47.128;15.422;2024-03-17T03:06:49;7.30;99.90
23869;DHT22;12115;47.128;15.422;2024-03-17T03:09:16;7.30;99.90
23869;DHT22;12115;47.128;15.422;2024-03-17T03:11:47;7.30;99.90
23869;DHT22;12115;47.128;15.422;2024-03-17T03:14:13;7.20;99.90
23869;DHT22;12115;47.128;15.422;2024-03-17T03:16:39;7.20;99.90
23869;DHT22;12115;47.128;15.422;2024-03-17T03:19:06;7.20;99.90
23869;DHT22;12115;47.128;15.422;2024-03-17T03:21:32;7.30;99.90
23869;DHT22;12115;47.128;15.422;2024-03-17T03:23:59;7.30;99.90
23869;DHT22;12115;47.128;15.422;2024-03-17T03:26:27;7.30;99.90
23869;DHT22;12115;47.128;15.422;2024-03-17T03:28:54;7.30;99.90
23869;DHT22;12115;47.128;15.422;2024-03-17T03:31:21;7.30;99.90
23869;DHT22;12115;47.128;15.422;2024-03-17T03:33:47;7.20;99.90
23869;DHT22;12115;47.128;15.422;2024-03-17T03:36:15;7.20;99.90
23869;DHT22;12115;47.128;15.422;2024-03-17T03:38:42;7.20;99.90
23869;DHT22;12115;47.128;15.422;2024-03-17T03:41:15;7.20;99.90
23869;DHT22;12115;47.128;15.422;2024-03-17T03:43:42;7.20;99.90
23869;DHT22;12115;47.128;15.422;2024-03-17T03:46:09;7.20;99.90
23869;DHT22;12115;47.128;15.422;2024-03-17T03:48:35;7.30;99.90
23869;DHT22;12115;47.128;15.422;2024-03-17T03:51:05;7.30;99.90
23869;DHT22;12115;47.128;15.422;2024-03-17T03:53:35;7.20;99.90
23869;DHT22;12115;47.128;15.422;2024-03-17T03:56:05;7.10;99.90
23869;DHT22;12115;47.128;15.422;2024-03-17T03:58:36;7.00;99.90
23869;DHT22;12115;47.128;15.422;2024-03-17T04:01:07;7.00;99.90
23869;DHT22;12115;47.128;15.422;2024-03-17T04:03:34;7.00;99.90
23869;DHT22;12115;47.128;15.422;2024-03-17T04:06:09;7.00;99.90
23869;DHT22;12115;47.128;15.422;2024-03-17T04:08:39;7.00;99.90
23869;DHT22;12115;47.128;15.422;2024-03-17T04:11:09;7.10;99.90
23869;DHT22;12115;47.128;15.422;2024-03-17T04:13:35;7.10;99.90
23869;DHT22;12115;47.128;15.422;2024-03-17T04:16:05;7.10;99.90
23869;DHT22;12115;47.128;15.422;2024-03-17T04:18:32;7.10;99.90
23869;DHT22;12115;47.128;15.422;2024-03-17T04:21:05;7.00;99.90
23869;DHT22;12115;47.128;15.422;2024-03-17T04:23:33;7.00;99.90
23869;DHT22;12115;47.128;15.422;2024-03-17T04:26:00;7.00;99.90
23869;DHT22;12115;47.128;15.422;2024-03-17T04:28:27;7.00;99.90
23869;DHT22;12115;47.128;15.422;2024-03-17T04:31:02;7.00;99.90
23869;DHT22;12115;47.128;15.422;2024-03-17T04:33:30;7.00;99.90
23869;DHT22;12115;47.128;15.422;2024-03-17T04:35:56;7.00;99.90
23869;DHT22;12115;47.128;15.422;2024-03-17T04:38:23;7.10;99.90
23869;DHT22;12115;47.128;15.422;2024-03-17T04:40:50;7.10;99.90
23869;DHT22;12115;47.128;15.422;2024-03-17T04:43:17;7.10;99.90
23869;DHT22;12115;47.128;15.422;2024-03-17T04:45:43;7.10;99.90
23869;DHT22;12115;47.128;15.422;2024-03-17T04:48:10;7.10;99.90
23869;DHT22;12115;47.128;15.422;2024-03-17T04:50:36;7.10;99.90
23869;DHT22;12115;47.128;15.422;2024-03-17T04:53:03;7.10;99.90
23869;DHT22;12115;47.128;15.422;2024-03-17T04:55:30;7.10;99.90
23869;DHT22;12115;47.128;15.422;2024-03-17T04:57:56;7.10;99.90
23869;DHT22;12115;47.128;15.422;2024-03-17T05:00:22;7.10;99.90
23869;DHT22;12115;47.128;15.422;2024-03-17T05:02:48;7.20;99.90
23869;DHT22;12115;47.128;15.422;2024-03-17T05:05:14;7.20;99.90
23869;DHT22;12115;47.128;15.422;2024-03-17T05:07:40;7.20;99.90
23869;DHT22;12115;47.128;15.422;2024-03-17T05:10:06;7.30;99.90
23869;DHT22;12115;47.128;15.422;2024-03-17T05:12:33;7.30;99.90
23869;DHT22;12115;47.128;15.422;2024-03-17T05:14:59;7.30;99.90
23869;DHT22;12115;47.128;15.422;2024-03-17T05:17:25;7.30;99.90
23869;DHT22;12115;47.128;15.422;2024-03-17T05:19:51;7.40;99.90
23869;DHT22;12115;47.128;15.422;2024-03-17T05:22:17;7.40;99.90
23869;DHT22;12115;47.128;15.422;2024-03-17T05:24:43;7.40;99.90
23869;DHT22;12115;47.128;15.422;2024-03-17T05:27:09;7.50;99.90
23869;DHT22;12115;47.128;15.422;2024-03-17T05:29:35;7.50;99.90
23869;DHT22;12115;47.128;15.422;2024-03-17T05:32:04;7.50;99.90
23869;DHT22;12115;47.128;15.422;2024-03-17T05:34:30;7.50;99.90
23869;DHT22;12115;47.128;15.422;2024-03-17T05:36:56;7.60;99.90
23869;DHT22;12115;47.128;15.422;2024-03-17T05:39:22;7.60;99.90
23869;DHT22;12115;47.128;15.422;2024-03-17T05:41:48;7.60;99.90
23869;DHT22;12115;47.128;15.422;2024-03-17T05:44:17;7.60;99.90
23869;DHT22;12115;47.128;15.422;2024-03-17T05:46:44;7.60;99.90
23869;DHT22;12115;47.128;15.422;2024-03-17T05:49:10;7.70;99.90
23869;DHT22;12115;47.128;15.422;2024-03-17T05:51:36;7.80;99.90
23869;DHT22;12115;47.128;15.422;2024-03-17T05:54:02;7.80;99.90
23869;DHT22;12115;47.128;15.422;2024-03-17T05:56:28;7.80;99.90
23869;DHT22;12115;47.128;15.422;2024-03-17T05:58:55;7.90;99.90
23869;DHT22;12115;47.128;15.422;2024-03-17T06:01:21;7.90;99.90
23869;DHT22;12115;47.128;15.422;2024-03-17T06:03:48;8.00;99.90
23869;DHT22;12115;47.128;15.422;2024-03-17T06:06:14;8.00;99.90
23869;DHT22;12115;47.128;15.422;2024-03-17T06:08:41;8.10;99.90
23869;DHT22;12115;47.128;15.422;2024-03-17T06:11:07;8.20;99.90
23869;DHT22;12115;47.128;15.422;2024-03-17T06:13:34;8.20;99.90
23869;DHT22;12115;47.128;15.422;2024-03-17T06:16:02;8.30;99.90
23869;DHT22;12115;47.128;15.422;2024-03-17T06:18:29;8.40;99.90
23869;DHT22;12115;47.128;15.422;2024-03-17T06:20:55;8.40;99.90
23869;DHT22;12115;47.128;15.422;2024-03-17T06:23:24;8.50;99.90
23869;DHT22;12115;47.128;15.422;2024-03-17T06:25:54;8.60;99.90
23869;DHT22;12115;47.128;15.422;2024-03-17T06:28:21;8.70;99.90
23869;DHT22;12115;47.128;15.422;2024-03-17T06:30:58;8.70;99.90
23869;DHT22;12115;47.128;15.422;2024-03-17T06:33:30;8.80;99.90
23869;DHT22;12115;47.128;15.422;2024-03-17T06:35:58;8.80;99.90
23869;DHT22;12115;47.128;15.422;2024-03-17T06:38:24;8.90;99.90
23869;DHT22;12115;47.128;15.422;2024-03-17T06:40:51;8.90;99.90
23869;DHT22;12115;47.128;15.422;2024-03-17T06:43:18;9.00;99.90
23869;DHT22;12115;47.128;15.422;2024-03-17T06:45:44;9.10;99.90
23869;DHT22;12115;47.128;15.422;2024-03-17T06:48:19;9.40;99.90
23869;DHT22;12115;47.128;15.422;2024-03-17T06:50:45;9.50;99.90
23869;DHT22;12115;47.128;15.422;2024-03-17T06:53:11;9.60;99.90
23869;DHT22;12115;47.128;15.422;2024-03-17T06:55:37;9.70;99.90
23869;DHT22;12115;47.128;15.422;2024-03-17T06:58:03;9.60;99.90
23869;DHT22;12115;47.128;15.422;2024-03-17T07:00:29;9.70;99.90
23869;DHT22;12115;47.128;15.422;2024-03-17T07:02:55;9.80;99.90
23869;DHT22;12115;47.128;15.422;2024-03-17T07:05:21;9.80;99.90
23869;DHT22;12115;47.128;15.422;2024-03-17T07:07:47;9.80;99.90
23869;DHT22;12115;47.128;15.422;2024-03-17T07:10:13;9.90;99.90
23869;DHT22;12115;47.128;15.422;2024-03-17T07:12:41;9.90;99.90
23869;DHT22;12115;47.128;15.422;2024-03-17T07:15:08;10.00;99.90
23869;DHT22;12115;47.128;15.422;2024-03-17T07:17:34;10.20;99.90
23869;DHT22;12115;47.128;15.422;2024-03-17T07:20:01;10.20;99.90
23869;DHT22;12115;47.128;15.422;2024-03-17T07:22:27;10.30;99.90
23869;DHT22;12115;47.128;15.422;2024-03-17T07:24:54;10.50;99.90
23869;DHT22;12115;47.128;15.422;2024-03-17T07:27:27;10.80;99.90
23869;DHT22;12115;47.128;15.422;2024-03-17T07:29:54;10.80;99.90
23869;DHT22;12115;47.128;15.422;2024-03-17T07:32:21;10.80;99.90
23869;DHT22;12115;47.128;15.422;2024-03-17T07:34:49;10.90;99.90
23869;DHT22;12115;47.128;15.422;2024-03-17T07:37:16;11.00;99.90
23869;DHT22;12115;47.128;15.422;2024-03-17T07:39:42;11.20;99.90
23869;DHT22;12115;47.128;15.422;2024-03-17T07:42:08;11.40;99.90
23869;DHT22;12115;47.128;15.422;2024-03-17T07:44:34;11.50;99.90
23869;DHT22;12115;47.128;15.422;2024-03-17T07:47:01;11.60;99.90
23869;DHT22;12115;47.128;15.422;2024-03-17T07:49:30;11.70;99.90
23869;DHT22;12115;47.128;15.422;2024-03-17T07:51:56;11.80;99.90
23869;DHT22;12115;47.128;15.422;2024-03-17T07:54:27;12.00;99.90
23869;DHT22;12115;47.128;15.422;2024-03-17T07:56:53;12.30;99.90
23869;DHT22;12115;47.128;15.422;2024-03-17T07:59:19;12.50;99.90
23869;DHT22;12115;47.128;15.422;2024-03-17T08:01:45;12.50;99.90
23869;DHT22;12115;47.128;15.422;2024-03-17T08:04:12;12.50;99.90
23869;DHT22;12115;47.128;15.422;2024-03-17T08:06:41;12.70;99.90
23869;DHT22;12115;47.128;15.422;2024-03-17T08:09:08;12.90;99.90
23869;DHT22;12115;47.128;15.422;2024-03-17T08:11:35;13.10;99.90
23869;DHT22;12115;47.128;15.422;2024-03-17T08:14:01;13.40;99.90
23869;DHT22;12115;47.128;15.422;2024-03-17T08:16:31;13.60;99.90
23869;DHT22;12115;47.128;15.422;2024-03-17T08:18:57;14.10;99.90
23869;DHT22;12115;47.128;15.422;2024-03-17T08:21:23;14.60;99.90
23869;DHT22;12115;47.128;15.422;2024-03-17T08:23:50;14.90;99.90
23869;DHT22;12115;47.128;15.422;2024-03-17T08:26:17;15.30;99.90
23869;DHT22;12115;47.128;15.422;2024-03-17T08:28:43;15.70;99.90
23869;DHT22;12115;47.128;15.422;2024-03-17T08:31:10;16.10;99.50
23869;DHT22;12115;47.128;15.422;2024-03-17T08:33:37;16.60;97.50
23869;DHT22;12115;47.128;15.422;2024-03-17T08:36:04;17.00;97.10
23869;DHT22;12115;47.128;15.422;2024-03-17T08:38:32;17.40;96.00
23869;DHT22;12115;47.128;15.422;2024-03-17T08:41:06;17.50;96.10
23869;DHT22;12115;47.128;15.422;2024-03-17T08:43:33;17.80;94.80
23869;DHT22;12115;47.128;15.422;2024-03-17T08:46:01;18.00;95.20
23869;DHT22;12115;47.128;15.422;2024-03-17T08:48:30;18.10;95.40
23869;DHT22;12115;47.128;15.422;2024-03-17T08:50:57;18.10;95.50
23869;DHT22;12115;47.128;15.422;2024-03-17T08:53:24;18.40;94.70
23869;DHT22;12115;47.128;15.422;2024-03-17T08:55:54;18.60;96.00
23869;DHT22;12115;47.128;15.422;2024-03-17T08:58:52;18.60;93.40
23869;DHT22;12115;47.128;15.422;2024-03-17T09:01:18;19.10;92.00
23869;DHT22;12115;47.128;15.422;2024-03-17T09:03:45;19.20;91.40
23869;DHT22;12115;47.128;15.422;2024-03-17T09:06:16;19.70;91.00
23869;DHT22;12115;47.128;15.422;2024-03-17T09:08:42;19.60;90.20
23869;DHT22;12115;47.128;15.422;2024-03-17T09:11:12;19.60;85.80
23869;DHT22;12115;47.128;15.422;2024-03-17T09:13:39;19.40;85.40
23869;DHT22;12115;47.128;15.422;2024-03-17T09:16:05;19.50;87.40
23869;DHT22;12115;47.128;15.422;2024-03-17T09:18:32;20.10;85.50
23869;DHT22;12115;47.128;15.422;2024-03-17T09:21:00;20.70;81.30
23869;DHT22;12115;47.128;15.422;2024-03-17T09:23:27;20.60;80.20
23869;DHT22;12115;47.128;15.422;2024-03-17T09:28:28;21.10;77.70
23869;DHT22;12115;47.128;15.422;2024-03-17T09:30:56;21.10;81.10
23869;DHT22;12115;47.128;15.422;2024-03-17T09:35:53;21.00;78.20
23869;DHT22;12115;47.128;15.422;2024-03-17T09:38:20;21.00;81.20
23869;DHT22;12115;47.128;15.422;2024-03-17T09:40:47;21.00;82.40
23869;DHT22;12115;47.128;15.422;2024-03-17T09:43:15;20.80;82.80
23869;DHT22;12115;47.128;15.422;2024-03-17T09:45:41;20.90;83.40
23869;DHT22;12115;47.128;15.422;2024-03-17T09:48:13;20.90;80.20
23869;DHT22;12115;47.128;15.422;2024-03-17T09:50:40;20.80;80.20
23869;DHT22;12115;47.128;15.422;2024-03-17T09:53:16;20.70;81.70
23869;DHT22;12115;47.128;15.422;2024-03-17T09:55:43;20.70;83.50
23869;DHT22;12115;47.128;15.422;2024-03-17T09:58:15;20.60;81.70
23869;DHT22;12115;47.128;15.422;2024-03-17T10:00:42;20.60;84.90
23869;DHT22;12115;47.128;15.422;2024-03-17T10:03:09;20.60;82.70
23869;DHT22;12115;47.128;15.422;2024-03-17T10:05:35;20.60;84.40
23869;DHT22;12115;47.128;15.422;2024-03-17T10:08:01;20.70;83.80
23869;DHT22;12115;47.128;15.422;2024-03-17T10:10:28;20.60;81.90
23869;DHT22;12115;47.128;15.422;2024-03-17T10:12:54;20.40;82.60
23869;DHT22;12115;47.128;15.422;2024-03-17T10:15:20;20.50;83.50
23869;DHT22;12115;47.128;15.422;2024-03-17T10:17:47;20.60;81.10
23869;DHT22;12115;47.128;15.422;2024-03-17T10:20:15;20.60;80.30
23869;DHT22;12115;47.128;15.422;2024-03-17T10:25:29;20.20;81.40
23869;DHT22;12115;47.128;15.422;2024-03-17T10:27:56;20.30;80.40
23869;DHT22;12115;47.128;15.422;2024-03-17T10:30:24;19.80;80.20
23869;DHT22;12115;47.128;15.422;2024-03-17T10:32:58;19.80;81.50
23869;DHT22;12115;47.128;15.422;2024-03-17T10:35:36;19.50;79.70
23869;DHT22;12115;47.128;15.422;2024-03-17T10:38:09;19.40;83.30
23869;DHT22;12115;47.128;15.422;2024-03-17T10:40:35;19.40;81.90
23869;DHT22;12115;47.128;15.422;2024-03-17T10:43:05;19.20;83.50
23869;DHT22;12115;47.128;15.422;2024-03-17T10:45:33;19.40;84.70
23869;DHT22;12115;47.128;15.422;2024-03-17T10:48:08;19.00;83.50
23869;DHT22;12115;47.128;15.422;2024-03-17T10:50:38;19.00;83.80
23869;DHT22;12115;47.128;15.422;2024-03-17T10:53:06;19.10;83.80
23869;DHT22;12115;47.128;15.422;2024-03-17T10:55:45;19.10;84.20
23869;DHT22;12115;47.128;15.422;2024-03-17T11:00:45;19.30;82.70
23869;DHT22;12115;47.128;15.422;2024-03-17T11:03:13;19.00;83.30
23869;DHT22;12115;47.128;15.422;2024-03-17T11:05:40;19.10;84.00
23869;DHT22;12115;47.128;15.422;2024-03-17T11:08:15;19.10;84.80
23869;DHT22;12115;47.128;15.422;2024-03-17T11:10:52;19.40;84.20
23869;DHT22;12115;47.128;15.422;2024-03-17T11:13:29;19.30;83.10
23869;DHT22;12115;47.128;15.422;2024-03-17T11:15:57;19.30;83.70
23869;DHT22;12115;47.128;15.422;2024-03-17T11:23:27;18.70;83.70
23869;DHT22;12115;47.128;15.422;2024-03-17T11:25:53;18.70;85.70
23869;DHT22;12115;47.128;15.422;2024-03-17T11:31:40;19.10;85.50
23869;DHT22;12115;47.128;15.422;2024-03-17T11:36:56;18.70;83.80
23869;DHT22;12115;47.128;15.422;2024-03-17T11:40:00;18.70;84.60
23869;DHT22;12115;47.128;15.422;2024-03-17T11:42:27;18.70;84.00
23869;DHT22;12115;47.128;15.422;2024-03-17T11:44:56;18.60;83.60
23869;DHT22;12115;47.128;15.422;2024-03-17T11:47:22;18.60;83.20
23869;DHT22;12115;47.128;15.422;2024-03-17T11:49:51;18.50;83.10
23869;DHT22;12115;47.128;15.422;2024-03-17T11:52:19;18.50;85.00
23869;DHT22;12115;47.128;15.422;2024-03-17T11:54:46;18.60;86.40
23869;DHT22;12115;47.128;15.422;2024-03-17T11:57:23;18.80;85.20
23869;DHT22;12115;47.128;15.422;2024-03-17T11:59:50;18.90;83.60
23869;DHT22;12115;47.128;15.422;2024-03-17T12:02:18;18.70;83.10
23869;DHT22;12115;47.128;15.422;2024-03-17T12:04:44;18.50;83.20
23869;DHT22;12115;47.128;15.422;2024-03-17T12:07:14;18.50;83.30
23869;DHT22;12115;47.128;15.422;2024-03-17T12:09:45;18.50;82.70
23869;DHT22;12115;47.128;15.422;2024-03-17T12:12:23;18.30;82.40
23869;DHT22;12115;47.128;15.422;2024-03-17T12:14:50;18.20;83.20
23869;DHT22;12115;47.128;15.422;2024-03-17T12:17:24;18.20;84.50
23869;DHT22;12115;47.128;15.422;2024-03-17T12:19:51;18.40;84.60
23869;DHT22;12115;47.128;15.422;2024-03-17T12:22:22;18.60;82.60
23869;DHT22;12115;47.128;15.422;2024-03-17T12:24:49;18.70;83.30
23869;DHT22;12115;47.128;15.422;2024-03-17T12:27:20;18.80;82.10
23869;DHT22;12115;47.128;15.422;2024-03-17T12:29:48;18.70;81.80
23869;DHT22;12115;47.128;15.422;2024-03-17T12:32:21;18.50;80.90
23869;DHT22;12115;47.128;15.422;2024-03-17T12:34:53;18.50;81.90
23869;DHT22;12115;47.128;15.422;2024-03-17T12:37:23;18.50;81.20
23869;DHT22;12115;47.128;15.422;2024-03-17T12:40:00;18.30;80.80
23869;DHT22;12115;47.128;15.422;2024-03-17T12:42:27;18.10;81.40
23869;DHT22;12115;47.128;15.422;2024-03-17T12:44:55;18.10;81.20
23869;DHT22;12115;47.128;15.422;2024-03-17T12:47:22;17.90;80.90
23869;DHT22;12115;47.128;15.422;2024-03-17T12:49:53;18.00;82.10
23869;DHT22;12115;47.128;15.422;2024-03-17T12:52:21;18.00;82.10
23869;DHT22;12115;47.128;15.422;2024-03-17T12:55:22;17.80;81.20
23869;DHT22;12115;47.128;15.422;2024-03-17T12:58:09;17.70;81.30
23869;DHT22;12115;47.128;15.422;2024-03-17T13:03:28;17.80;80.70
23869;DHT22;12115;47.128;15.422;2024-03-17T13:05:55;17.80;81.30
23869;DHT22;12115;47.128;15.422;2024-03-17T13:08:21;17.80;81.30
23869;DHT22;12115;47.128;15.422;2024-03-17T13:10:47;17.70;79.90
23869;DHT22;12115;47.128;15.422;2024-03-17T13:13:14;17.70;80.50
23869;DHT22;12115;47.128;15.422;2024-03-17T13:15:42;17.60;81.30
23869;DHT22;12115;47.128;15.422;2024-03-17T13:18:09;17.60;82.00
23869;DHT22;12115;47.128;15.422;2024-03-17T13:20:41;17.70;82.00
23869;DHT22;12115;47.128;15.422;2024-03-17T13:23:07;17.70;81.70
23869;DHT22;12115;47.128;15.422;2024-03-17T13:25:33;17.70;81.70
23869;DHT22;12115;47.128;15.422;2024-03-17T13:28:03;17.70;82.10
23869;DHT22;12115;47.128;15.422;2024-03-17T13:30:30;17.80;83.70
23869;DHT22;12115;47.128;15.422;2024-03-17T13:32:59;17.80;82.00
23869;DHT22;12115;47.128;15.422;2024-03-17T13:35:28;17.90;82.30
23869;DHT22;12115;47.128;15.422;2024-03-17T13:37:57;17.80;81.00
23869;DHT22;12115;47.128;15.422;2024-03-17T13:40:28;17.90;81.50
23869;DHT22;12115;47.128;15.422;2024-03-17T13:42:55;17.80;80.90
23869;DHT22;12115;47.128;15.422;2024-03-17T13:45:24;17.90;82.20
23869;DHT22;12115;47.128;15.422;2024-03-17T13:47:53;17.90;82.20
23869;DHT22;12115;47.128;15.422;2024-03-17T13:50:22;17.60;90.20
23869;DHT22;12115;47.128;15.422;2024-03-17T13:52:48;17.60;91.00
23869;DHT22;12115;47.128;15.422;2024-03-17T13:55:15;17.40;92.10
23869;DHT22;12115;47.128;15.422;2024-03-17T13:57:46;17.20;92.70
23869;DHT22;12115;47.128;15.422;2024-03-17T14:00:13;17.30;93.40
23869;DHT22;12115;47.128;15.422;2024-03-17T14:02:43;17.40;92.90
23869;DHT22;12115;47.128;15.422;2024-03-17T14:05:15;17.20;93.30
23869;DHT22;12115;47.128;15.422;2024-03-17T14:07:41;17.40;94.10
23869;DHT22;12115;47.128;15.422;2024-03-17T14:10:09;17.20;94.50
23869;DHT22;12115;47.128;15.422;2024-03-17T14:12:36;17.30;95.20
23869;DHT22;12115;47.128;15.422;2024-03-17T14:15:06;17.40;95.10
23869;DHT22;12115;47.128;15.422;2024-03-17T14:17:33;17.20;95.00
23869;DHT22;12115;47.128;15.422;2024-03-17T14:19:59;16.80;95.60
23869;DHT22;12115;47.128;15.422;2024-03-17T14:22:25;16.70;95.90
23869;DHT22;12115;47.128;15.422;2024-03-17T14:24:51;16.60;96.30
23869;DHT22;12115;47.128;15.422;2024-03-17T14:27:17;16.60;96.50
23869;DHT22;12115;47.128;15.422;2024-03-17T14:29:44;16.40;96.60
23869;DHT22;12115;47.128;15.422;2024-03-17T14:32:11;16.40;97.00
23869;DHT22;12115;47.128;15.422;2024-03-17T14:34:39;16.40;97.60
23869;DHT22;12115;47.128;15.422;2024-03-17T14:37:05;16.30;97.10
23869;DHT22;12115;47.128;15.422;2024-03-17T14:39:32;16.10;97.60
23869;DHT22;12115;47.128;15.422;2024-03-17T14:41:59;16.20;97.80
23869;DHT22;12115;47.128;15.422;2024-03-17T14:44:25;16.20;97.70
23869;DHT22;12115;47.128;15.422;2024-03-17T14:46:51;16.20;98.00
23869;DHT22;12115;47.128;15.422;2024-03-17T14:49:18;16.20;98.10
23869;DHT22;12115;47.128;15.422;2024-03-17T14:51:44;16.10;98.00
23869;DHT22;12115;47.128;15.422;2024-03-17T14:54:10;16.10;98.40
23869;DHT22;12115;47.128;15.422;2024-03-17T14:56:37;16.10;98.90
23869;DHT22;12115;47.128;15.422;2024-03-17T14:59:03;16.00;98.50
23869;DHT22;12115;47.128;15.422;2024-03-17T15:01:29;15.90;98.60
23869;DHT22;12115;47.128;15.422;2024-03-17T15:03:56;15.90;98.70
23869;DHT22;12115;47.128;15.422;2024-03-17T15:06:22;15.70;99.10
23869;DHT22;12115;47.128;15.422;2024-03-17T15:08:48;15.80;99.10
23869;DHT22;12115;47.128;15.422;2024-03-17T15:11:15;15.90;98.80
23869;DHT22;12115;47.128;15.422;2024-03-17T15:13:41;15.90;98.80
23869;DHT22;12115;47.128;15.422;2024-03-17T15:16:09;15.70;99.00
23869;DHT22;12115;47.128;15.422;2024-03-17T15:18:35;15.80;99.10
23869;DHT22;12115;47.128;15.422;2024-03-17T15:21:01;15.70;99.20
23869;DHT22;12115;47.128;15.422;2024-03-17T15:23:28;15.70;99.60
23869;DHT22;12115;47.128;15.422;2024-03-17T15:26:04;15.60;99.60
23869;DHT22;12115;47.128;15.422;2024-03-17T15:28:41;15.70;99.90
23869;DHT22;12115;47.128;15.422;2024-03-17T15:31:11;15.60;99.50
23869;DHT22;12115;47.128;15.422;2024-03-17T15:33:38;15.60;99.60
23869;DHT22;12115;47.128;15.422;2024-03-17T15:36:09;15.60;99.80
23869;DHT22;12115;47.128;15.422;2024-03-17T15:38:36;15.60;99.90
23869;DHT22;12115;47.128;15.422;2024-03-17T15:41:07;15.60;99.90
23869;DHT22;12115;47.128;15.422;2024-03-17T15:43:33;15.60;99.90
23869;DHT22;12115;47.128;15.422;2024-03-17T15:46:00;15.60;99.90
23869;DHT22;12115;47.128;15.422;2024-03-17T15:48:27;15.60;99.90
23869;DHT22;12115;47.128;15.422;2024-03-17T15:50:58;15.60;99.90
23869;DHT22;12115;47.128;15.422;2024-03-17T15:53:24;15.60;99.90